Time;durP1;ratioP1;P1;durP2;ratioP2;P2;SDS_P1;SDS_P2;PMS_P1;PMS_P2;Temp;Humidity;BMP_temperature;BMP_pressure;BME280_temperature;BME280_humidity;BME280_pressure;Samples;Min_cycle;Max_cycle;Signal;HPM_P1;HPM_P2
2022/05/21 00:02:16;;;;;;;;;;;13.20;99.90;;;;;;5066156;28;19966;-66
2022/05/21 00:04:42;;;;;;;;;;;13.20;99.90;;;;;;5063294;28;19917;-66
2022/05/21 00:07:11;;;;;;;;;;;13.20;99.90;;;;;;5067156;28;20404;-65
2022/05/21 00:09:37;;;;;;;;;;;13.20;99.90;;;;;;5068263;28;19972;-66
2022/05/21 00:12:03;;;;;;;;;;;13.30;99.90;;;;;;5066820;28;20325;-65
2022/05/21 00:14:29;;;;;;;;;;;13.30;99.90;;;;;;5065177;28;19912;-66
2022/05/21 00:16:55;;;;;;;;;;;13.40;99.90;;;;;;5069791;28;19913;-67
2022/05/21 00:19:20;;;;;;;;;;;13.40;99.90;;;;;;5066162;28;19913;-67
2022/05/21 00:21:46;;;;;;;;;;;13.50;99.90;;;;;;5058035;28;19916;-66
2022/05/21 00:24:11;;;;;;;;;;;13.50;99.90;;;;;;5068764;28;19913;-67
2022/05/21 00:26:37;;;;;;;;;;;13.50;99.90;;;;;;5069572;28;20007;-68
2022/05/21 00:29:02;;;;;;;;;;;13.50;99.90;;;;;;5067182;28;19935;-66
2022/05/21 00:31:28;;;;;;;;;;;13.60;99.90;;;;;;5064834;28;20379;-67
2022/05/21 00:33:53;;;;;;;;;;;13.50;99.90;;;;;;5071026;28;19920;-66
2022/05/21 00:36:19;;;;;;;;;;;13.30;99.90;;;;;;5070153;28;20354;-66
2022/05/21 00:38:45;;;;;;;;;;;13.30;99.90;;;;;;5066763;28;19920;-67
2022/05/21 00:41:12;;;;;;;;;;;13.20;99.90;;;;;;5069429;28;20361;-67
2022/05/21 00:43:54;;;;;;;;;;;13.20;99.90;;;;;;5073788;28;19942;-67
2022/05/21 00:46:22;;;;;;;;;;;13.00;99.90;;;;;;5067503;28;20278;-67
2022/05/21 00:49:07;;;;;;;;;;;12.80;99.90;;;;;;5069889;28;19912;-67
2022/05/21 00:51:36;;;;;;;;;;;12.70;99.90;;;;;;5068226;28;19916;-67
2022/05/21 00:54:03;;;;;;;;;;;12.60;99.90;;;;;;5062211;28;19919;-67
2022/05/21 00:56:30;;;;;;;;;;;12.50;99.90;;;;;;5069259;28;19917;-67
2022/05/21 01:01:44;;;;;;;;;;;12.70;99.90;;;;;;5069027;28;19957;-67
2022/05/21 01:04:09;;;;;;;;;;;12.60;99.90;;;;;;5068928;28;19913;-67
2022/05/21 01:06:35;;;;;;;;;;;12.70;99.90;;;;;;5060372;28;19919;-66
2022/05/21 01:09:01;;;;;;;;;;;12.80;99.90;;;;;;5066159;28;20271;-67
2022/05/21 01:11:27;;;;;;;;;;;12.80;99.90;;;;;;5083002;28;19924;-66
2022/05/21 01:13:53;;;;;;;;;;;12.80;99.90;;;;;;5070689;28;19916;-66
2022/05/21 01:16:18;;;;;;;;;;;12.90;99.90;;;;;;5090163;28;19912;-67
2022/05/21 01:18:44;;;;;;;;;;;12.90;99.90;;;;;;5092394;28;20376;-67
2022/05/21 01:21:10;;;;;;;;;;;12.90;99.90;;;;;;5090400;28;20273;-67
2022/05/21 01:23:35;;;;;;;;;;;13.00;99.90;;;;;;5088649;28;19966;-67
2022/05/21 01:26:03;;;;;;;;;;;12.90;99.90;;;;;;5087887;28;19912;-66
2022/05/21 01:28:31;;;;;;;;;;;12.90;99.90;;;;;;5090355;28;20282;-66
2022/05/21 01:30:58;;;;;;;;;;;12.90;99.90;;;;;;5083577;28;19912;-67
2022/05/21 01:33:25;;;;;;;;;;;12.70;99.90;;;;;;5088245;28;19920;-66
2022/05/21 01:35:51;;;;;;;;;;;12.60;99.90;;;;;;5092705;28;20262;-66
2022/05/21 01:38:19;;;;;;;;;;;12.50;99.90;;;;;;5088208;28;19965;-66
2022/05/21 01:40:45;;;;;;;;;;;12.50;99.90;;;;;;5071878;28;19970;-67
2022/05/21 01:45:55;;;;;;;;;;;12.50;99.90;;;;;;5092566;28;19919;-66
2022/05/21 01:48:22;;;;;;;;;;;12.40;99.90;;;;;;5091882;28;19916;-67
2022/05/21 01:50:49;;;;;;;;;;;12.40;99.90;;;;;;5092762;28;19912;-65
2022/05/21 01:53:15;;;;;;;;;;;12.30;99.90;;;;;;5087632;28;19973;-66
2022/05/21 01:55:42;;;;;;;;;;;12.40;99.90;;;;;;5085235;28;19938;-66
2022/05/21 01:58:07;;;;;;;;;;;12.40;99.90;;;;;;5096227;28;19957;-66
2022/05/21 02:00:34;;;;;;;;;;;12.40;99.90;;;;;;5092218;28;19916;-66
2022/05/21 02:02:59;;;;;;;;;;;12.50;99.90;;;;;;5076256;28;19919;-66
2022/05/21 02:05:25;;;;;;;;;;;12.70;99.90;;;;;;5097623;28;19912;-66
2022/05/21 02:07:50;;;;;;;;;;;12.70;99.90;;;;;;5094101;28;20030;-66
2022/05/21 02:10:16;;;;;;;;;;;12.70;99.90;;;;;;5100766;28;19924;-67
2022/05/21 02:12:41;;;;;;;;;;;12.60;99.90;;;;;;5092954;28;19938;-66
2022/05/21 02:15:08;;;;;;;;;;;12.50;99.90;;;;;;5098743;28;19919;-66
2022/05/21 02:17:33;;;;;;;;;;;12.50;99.90;;;;;;5078833;28;19913;-67
2022/05/21 02:19:59;;;;;;;;;;;12.60;99.90;;;;;;5091662;28;20015;-66
2022/05/21 02:22:26;;;;;;;;;;;12.60;99.90;;;;;;5093779;28;19912;-65
2022/05/21 02:24:51;;;;;;;;;;;12.50;99.90;;;;;;5092689;28;20014;-66
2022/05/21 02:27:17;;;;;;;;;;;12.50;99.90;;;;;;5075141;28;20163;-66
2022/05/21 02:29:42;;;;;;;;;;;12.50;99.90;;;;;;5094269;28;19913;-66
2022/05/21 02:32:08;;;;;;;;;;;12.50;99.90;;;;;;5091232;28;19923;-66
2022/05/21 02:34:34;;;;;;;;;;;12.40;99.90;;;;;;5073585;28;19923;-66
2022/05/21 02:39:44;;;;;;;;;;;12.60;99.90;;;;;;5087580;28;19919;-66
2022/05/21 02:44:54;;;;;;;;;;;12.60;99.90;;;;;;5090760;28;19920;-66
2022/05/21 02:47:20;;;;;;;;;;;12.60;99.90;;;;;;5081684;28;20290;-66
2022/05/21 02:49:45;;;;;;;;;;;12.70;99.90;;;;;;5087975;28;20374;-66
2022/05/21 02:52:11;;;;;;;;;;;12.70;99.90;;;;;;5091214;28;20348;-67
2022/05/21 02:54:37;;;;;;;;;;;12.70;99.90;;;;;;5088097;28;19920;-67
2022/05/21 02:57:03;;;;;;;;;;;12.70;99.90;;;;;;5082412;28;19913;-67
2022/05/21 02:59:29;;;;;;;;;;;12.70;99.90;;;;;;5085820;28;19912;-67
2022/05/21 03:01:55;;;;;;;;;;;12.60;99.90;;;;;;5091041;28;19912;-66
2022/05/21 03:04:20;;;;;;;;;;;12.60;99.90;;;;;;5089842;28;19918;-67
2022/05/21 03:06:46;;;;;;;;;;;12.50;99.90;;;;;;5070866;28;19918;-66
2022/05/21 03:11:56;;;;;;;;;;;12.60;99.90;;;;;;5083528;28;19962;-66
2022/05/21 03:14:21;;;;;;;;;;;12.40;99.90;;;;;;5064694;28;20365;-67
2022/05/21 03:16:47;;;;;;;;;;;12.40;99.90;;;;;;5082568;28;19921;-66
2022/05/21 03:19:12;;;;;;;;;;;12.20;99.90;;;;;;5085503;28;19920;-67
2022/05/21 03:21:38;;;;;;;;;;;12.10;99.90;;;;;;5080648;28;19920;-67
2022/05/21 03:24:04;;;;;;;;;;;12.00;99.90;;;;;;5084307;28;19962;-66
2022/05/21 03:26:31;;;;;;;;;;;12.00;99.90;;;;;;5080422;28;19912;-68
2022/05/21 03:28:57;;;;;;;;;;;12.00;99.90;;;;;;5063020;28;20366;-66
2022/05/21 03:31:22;;;;;;;;;;;12.10;99.90;;;;;;5081849;28;19923;-67
2022/05/21 03:33:48;;;;;;;;;;;12.10;99.90;;;;;;5077926;28;19916;-67
2022/05/21 03:36:14;;;;;;;;;;;12.10;99.90;;;;;;5082852;28;19916;-65
2022/05/21 03:38:40;;;;;;;;;;;12.10;99.90;;;;;;5080828;28;20376;-67
2022/05/21 03:41:06;;;;;;;;;;;12.00;99.90;;;;;;5081905;28;19917;-67
2022/05/21 03:43:31;;;;;;;;;;;11.90;99.90;;;;;;5083008;28;19916;-67
2022/05/21 03:45:57;;;;;;;;;;;11.90;99.90;;;;;;5079721;28;19913;-67
2022/05/21 03:48:22;;;;;;;;;;;11.90;99.90;;;;;;5082299;28;19927;-67
2022/05/21 03:50:48;;;;;;;;;;;11.90;99.90;;;;;;5082242;28;19912;-67
2022/05/21 03:53:15;;;;;;;;;;;11.90;99.90;;;;;;5080147;28;19920;-67
2022/05/21 03:55:40;;;;;;;;;;;11.90;99.90;;;;;;5079835;28;19912;-67
2022/05/21 03:58:06;;;;;;;;;;;11.90;99.90;;;;;;5082060;28;20385;-67
2022/05/21 04:00:32;;;;;;;;;;;11.90;99.90;;;;;;5072919;28;20374;-67
2022/05/21 04:02:59;;;;;;;;;;;12.00;99.90;;;;;;5077162;28;20031;-67
2022/05/21 04:05:25;;;;;;;;;;;12.10;99.90;;;;;;5078140;28;19912;-66
2022/05/21 04:07:50;;;;;;;;;;;12.10;99.90;;;;;;5064477;28;19968;-68
2022/05/21 04:10:16;;;;;;;;;;;12.10;99.90;;;;;;5087895;28;20273;-67
2022/05/21 04:12:42;;;;;;;;;;;12.10;99.90;;;;;;5085566;28;19927;-66
2022/05/21 04:15:08;;;;;;;;;;;12.20;99.90;;;;;;5086938;28;19911;-67
2022/05/21 04:17:35;;;;;;;;;;;12.10;99.90;;;;;;5073285;28;19912;-67
2022/05/21 04:20:01;;;;;;;;;;;12.10;99.90;;;;;;5092013;28;19916;-67
2022/05/21 04:22:27;;;;;;;;;;;12.10;99.90;;;;;;5085756;28;19998;-67
2022/05/21 04:24:52;;;;;;;;;;;12.00;99.90;;;;;;5091834;28;19952;-66
2022/05/21 04:27:19;;;;;;;;;;;11.90;99.90;;;;;;5084296;28;19916;-67
2022/05/21 04:29:44;;;;;;;;;;;11.90;99.90;;;;;;5087148;28;19912;-66
2022/05/21 04:32:10;;;;;;;;;;;11.80;99.90;;;;;;5086331;28;19920;-66
2022/05/21 04:34:36;;;;;;;;;;;11.90;99.90;;;;;;5086988;28;19912;-66
2022/05/21 04:37:02;;;;;;;;;;;11.80;99.90;;;;;;5093780;28;19919;-67
2022/05/21 04:39:28;;;;;;;;;;;11.90;99.90;;;;;;5094398;28;20373;-66
2022/05/21 04:41:53;;;;;;;;;;;11.90;99.90;;;;;;5093207;28;19946;-66
2022/05/21 04:44:19;;;;;;;;;;;11.80;99.90;;;;;;5092681;28;19912;-66
2022/05/21 04:46:45;;;;;;;;;;;11.80;99.90;;;;;;5087785;28;19916;-66
2022/05/21 04:49:10;;;;;;;;;;;12.00;99.90;;;;;;5092971;28;20330;-67
2022/05/21 04:51:37;;;;;;;;;;;12.10;99.90;;;;;;5071511;28;20354;-65
2022/05/21 04:54:03;;;;;;;;;;;12.10;99.90;;;;;;5094100;28;19966;-66
2022/05/21 04:56:31;;;;;;;;;;;12.10;99.90;;;;;;5090247;28;19940;-66
2022/05/21 04:58:57;;;;;;;;;;;12.00;99.90;;;;;;5091754;28;19916;-66
2022/05/21 05:01:24;;;;;;;;;;;12.10;99.90;;;;;;5091455;28;19954;-66
2022/05/21 05:03:49;;;;;;;;;;;12.00;99.90;;;;;;5094707;28;20304;-67
2022/05/21 05:06:15;;;;;;;;;;;12.00;99.90;;;;;;5095084;28;19919;-67
2022/05/21 05:08:40;;;;;;;;;;;12.00;99.90;;;;;;5088390;28;19912;-66
2022/05/21 05:11:06;;;;;;;;;;;12.10;99.90;;;;;;5084740;28;19920;-66
2022/05/21 05:13:31;;;;;;;;;;;12.20;99.90;;;;;;5067272;28;20023;-66
2022/05/21 05:15:57;;;;;;;;;;;12.20;99.90;;;;;;5091554;28;20409;-67
2022/05/21 05:18:23;;;;;;;;;;;12.30;99.90;;;;;;5083918;28;20390;-67
2022/05/21 05:20:49;;;;;;;;;;;12.30;99.90;;;;;;5088250;28;19927;-67
2022/05/21 05:23:15;;;;;;;;;;;12.50;99.90;;;;;;5091110;28;19912;-66
2022/05/21 05:25:41;;;;;;;;;;;12.50;99.90;;;;;;5092009;28;20340;-69
2022/05/21 05:28:20;;;;;;;;;;;12.50;99.90;;;;;;5065250;28;20358;-66
2022/05/21 05:30:49;;;;;;;;;;;12.50;99.90;;;;;;5090428;28;19913;-66
2022/05/21 05:33:18;;;;;;;;;;;12.50;99.90;;;;;;5083226;28;20282;-67
2022/05/21 05:35:44;;;;;;;;;;;12.50;99.90;;;;;;5084243;28;19995;-67
2022/05/21 05:38:11;;;;;;;;;;;12.50;99.90;;;;;;5067369;28;19969;-66
2022/05/21 05:40:38;;;;;;;;;;;12.40;99.90;;;;;;5069550;28;19920;-67
2022/05/21 05:43:04;;;;;;;;;;;12.40;99.90;;;;;;5090720;28;19920;-66
2022/05/21 05:45:30;;;;;;;;;;;12.60;99.90;;;;;;5086146;28;19923;-66
2022/05/21 05:47:56;;;;;;;;;;;12.80;99.90;;;;;;5092392;28;20373;-66
2022/05/21 05:50:22;;;;;;;;;;;12.90;99.90;;;;;;5093258;28;20280;-66
2022/05/21 05:52:47;;;;;;;;;;;13.00;99.90;;;;;;5101878;28;19920;-66
2022/05/21 05:55:13;;;;;;;;;;;13.00;99.90;;;;;;5074481;28;19913;-67
2022/05/21 05:57:39;;;;;;;;;;;13.10;99.90;;;;;;5088561;28;20297;-66
2022/05/21 06:00:05;;;;;;;;;;;13.10;99.90;;;;;;5085216;28;20000;-66
2022/05/21 06:05:19;;;;;;;;;;;13.30;99.90;;;;;;5086586;28;20305;-66
2022/05/21 06:07:47;;;;;;;;;;;13.30;99.90;;;;;;5088649;28;20265;-67
2022/05/21 06:10:14;;;;;;;;;;;13.50;99.90;;;;;;5091114;28;19957;-71
2022/05/21 06:12:40;;;;;;;;;;;13.70;99.90;;;;;;5092487;28;19924;-67
2022/05/21 06:15:06;;;;;;;;;;;13.90;99.90;;;;;;5080506;28;19961;-69
2022/05/21 06:17:32;;;;;;;;;;;13.80;99.90;;;;;;5090489;28;19968;-67
2022/05/21 06:19:58;;;;;;;;;;;13.80;99.90;;;;;;5087470;28;20107;-68
2022/05/21 06:22:24;;;;;;;;;;;13.90;99.90;;;;;;5090654;28;19966;-68
2022/05/21 06:24:51;;;;;;;;;;;13.90;99.90;;;;;;5087273;28;20382;-67
2022/05/21 06:27:17;;;;;;;;;;;13.90;99.90;;;;;;5071227;28;19995;-68
2022/05/21 06:29:42;;;;;;;;;;;13.90;99.90;;;;;;5081085;28;20006;-67
2022/05/21 06:32:08;;;;;;;;;;;14.10;99.90;;;;;;5084693;28;19973;-67
2022/05/21 06:34:37;;;;;;;;;;;14.20;99.90;;;;;;5083684;28;19908;-67
2022/05/21 06:37:04;;;;;;;;;;;14.30;99.90;;;;;;5083671;28;20065;-66
2022/05/21 06:39:33;;;;;;;;;;;14.40;99.90;;;;;;5083269;28;19912;-66
2022/05/21 06:41:59;;;;;;;;;;;14.20;99.90;;;;;;5090081;28;20404;-67
2022/05/21 06:44:25;;;;;;;;;;;14.20;99.90;;;;;;5090832;28;19973;-65
2022/05/21 06:46:50;;;;;;;;;;;14.50;99.90;;;;;;5080254;28;19912;-68
2022/05/21 06:49:17;;;;;;;;;;;14.80;99.90;;;;;;5093050;28;19912;-66
2022/05/21 06:51:43;;;;;;;;;;;14.90;99.90;;;;;;5067536;28;20011;-66
2022/05/21 06:54:09;;;;;;;;;;;14.90;99.90;;;;;;5088223;28;20004;-67
2022/05/21 06:56:35;;;;;;;;;;;14.90;99.90;;;;;;5079162;28;19923;-67
2022/05/21 06:59:00;;;;;;;;;;;15.00;99.90;;;;;;5085643;28;20302;-66
2022/05/21 07:01:26;;;;;;;;;;;14.90;99.90;;;;;;5083828;28;20289;-67
2022/05/21 07:03:51;;;;;;;;;;;15.00;99.90;;;;;;5088831;28;20289;-66
2022/05/21 07:09:01;;;;;;;;;;;15.40;99.90;;;;;;5092246;28;19927;-67
2022/05/21 07:11:27;;;;;;;;;;;15.80;99.90;;;;;;5078621;28;19924;-67
2022/05/21 07:13:52;;;;;;;;;;;15.90;99.90;;;;;;5088913;28;20342;-66
2022/05/21 07:16:18;;;;;;;;;;;16.00;99.90;;;;;;5085366;28;19916;-66
2022/05/21 07:18:44;;;;;;;;;;;16.10;99.90;;;;;;5080659;28;20003;-67
2022/05/21 07:21:13;;;;;;;;;;;16.10;99.90;;;;;;5086941;28;20362;-67
2022/05/21 07:23:39;;;;;;;;;;;15.90;99.90;;;;;;5079036;28;19919;-65
2022/05/21 07:26:05;;;;;;;;;;;16.00;99.90;;;;;;5064767;28;19920;-65
2022/05/21 07:28:30;;;;;;;;;;;16.10;99.90;;;;;;5063757;28;19927;-66
2022/05/21 07:30:56;;;;;;;;;;;16.00;99.90;;;;;;5079563;28;20272;-65
2022/05/21 07:33:21;;;;;;;;;;;15.70;99.90;;;;;;5082331;28;20017;-66
2022/05/21 07:35:47;;;;;;;;;;;15.50;99.90;;;;;;5066882;28;20377;-67
2022/05/21 07:38:13;;;;;;;;;;;15.70;99.90;;;;;;5089851;28;19965;-66
2022/05/21 07:40:39;;;;;;;;;;;15.60;99.90;;;;;;5065414;28;20126;-67
2022/05/21 07:43:09;;;;;;;;;;;15.60;99.90;;;;;;5064245;28;19919;-67
2022/05/21 07:45:38;;;;;;;;;;;15.50;99.90;;;;;;5069581;28;19919;-67
2022/05/21 07:48:10;;;;;;;;;;;15.70;99.90;;;;;;5081915;28;19987;-66
2022/05/21 07:50:36;;;;;;;;;;;15.80;99.90;;;;;;5083678;28;20440;-66
2022/05/21 07:53:02;;;;;;;;;;;16.00;99.90;;;;;;5079469;28;19920;-66
2022/05/21 07:55:28;;;;;;;;;;;15.90;99.90;;;;;;5085202;28;19966;-66
2022/05/21 07:57:53;;;;;;;;;;;16.00;99.90;;;;;;5052296;28;19973;-67
2022/05/21 08:00:19;;;;;;;;;;;16.00;99.90;;;;;;5092395;28;19912;-66
2022/05/21 08:02:45;;;;;;;;;;;15.80;99.90;;;;;;5083821;28;19912;-66
2022/05/21 08:05:11;;;;;;;;;;;15.70;99.90;;;;;;5084969;28;20003;-66
2022/05/21 08:07:37;;;;;;;;;;;15.90;99.90;;;;;;5078514;28;19934;-66
2022/05/21 08:10:04;;;;;;;;;;;16.00;99.90;;;;;;5076803;28;20324;-67
2022/05/21 08:12:29;;;;;;;;;;;16.00;99.90;;;;;;5063933;28;19921;-67
2022/05/21 08:14:55;;;;;;;;;;;16.00;99.90;;;;;;5080283;28;20435;-68
2022/05/21 08:17:21;;;;;;;;;;;16.00;99.90;;;;;;5064066;28;20431;-68
2022/05/21 08:19:46;;;;;;;;;;;16.00;99.90;;;;;;5061145;28;20011;-68
2022/05/21 08:27:40;;;;;;;;;;;16.00;99.90;;;;;;5078556;28;19984;-66
2022/05/21 08:30:07;;;;;;;;;;;16.20;99.90;;;;;;5075428;28;20216;-68
2022/05/21 08:32:33;;;;;;;;;;;16.20;99.90;;;;;;5079327;28;19920;-68
2022/05/21 08:34:59;;;;;;;;;;;16.20;99.90;;;;;;5075231;28;19935;-69
2022/05/21 08:37:26;;;;;;;;;;;16.20;99.90;;;;;;5060287;28;20162;-68
2022/05/21 08:39:51;;;;;;;;;;;16.50;99.90;;;;;;5081610;28;19916;-69
2022/05/21 08:42:20;;;;;;;;;;;16.70;99.90;;;;;;5082803;28;19915;-68
2022/05/21 08:44:47;;;;;;;;;;;16.80;99.90;;;;;;5083697;28;20370;-67
2022/05/21 08:47:20;;;;;;;;;;;16.90;99.90;;;;;;5075688;28;19909;-68
2022/05/21 08:50:02;;;;;;;;;;;17.00;99.90;;;;;;5068389;28;19913;-68
2022/05/21 08:52:34;;;;;;;;;;;16.80;99.90;;;;;;5066040;28;19916;-68
2022/05/21 08:55:03;;;;;;;;;;;17.00;99.90;;;;;;5093084;28;19912;-67
2022/05/21 08:57:33;;;;;;;;;;;16.80;99.90;;;;;;5093426;28;19908;-68
2022/05/21 09:00:15;;;;;;;;;;;16.80;99.90;;;;;;5093207;28;20306;-68
2022/05/21 09:02:40;;;;;;;;;;;17.00;99.90;;;;;;5066660;28;19952;-66
2022/05/21 09:05:08;;;;;;;;;;;16.90;99.90;;;;;;5095609;28;19951;-68
2022/05/21 09:07:57;;;;;;;;;;;16.90;99.90;;;;;;5092488;28;19961;-68
2022/05/21 09:10:33;;;;;;;;;;;16.80;99.90;;;;;;5047192;28;19931;-67
2022/05/21 09:13:17;;;;;;;;;;;17.10;99.90;;;;;;5073898;28;19920;-67
2022/05/21 09:18:29;;;;;;;;;;;17.50;99.90;;;;;;5086797;28;20442;-67
2022/05/21 09:20:59;;;;;;;;;;;17.40;99.90;;;;;;5091913;28;20372;-67
2022/05/21 09:23:25;;;;;;;;;;;17.30;99.90;;;;;;5093536;28;19935;-67
2022/05/21 09:26:05;;;;;;;;;;;17.20;99.90;;;;;;5073409;28;19927;-67
2022/05/21 09:28:31;;;;;;;;;;;17.30;99.90;;;;;;5085823;28;20345;-68
2022/05/21 09:30:58;;;;;;;;;;;17.30;99.90;;;;;;5089816;28;20015;-68
2022/05/21 09:33:32;;;;;;;;;;;17.50;99.90;;;;;;5084394;28;20003;-69
2022/05/21 09:35:58;;;;;;;;;;;17.50;99.90;;;;;;5074184;28;20258;-66
2022/05/21 09:38:25;;;;;;;;;;;17.70;99.90;;;;;;5090833;28;19959;-67
2022/05/21 09:41:03;;;;;;;;;;;17.40;99.90;;;;;;5088207;28;20065;-67
2022/05/21 09:46:21;;;;;;;;;;;17.50;99.90;;;;;;5083232;28;19919;-68
2022/05/21 09:48:47;;;;;;;;;;;17.50;99.90;;;;;;5092911;28;20339;-68
2022/05/21 09:51:26;;;;;;;;;;;17.50;99.90;;;;;;5088432;28;19918;-68
2022/05/21 09:53:52;;;;;;;;;;;17.30;99.90;;;;;;5085904;28;19926;-68
2022/05/21 09:56:19;;;;;;;;;;;17.40;99.90;;;;;;5092866;28;20344;-67
2022/05/21 09:58:45;;;;;;;;;;;17.40;99.90;;;;;;5068388;28;20258;-68
2022/05/21 10:01:15;;;;;;;;;;;17.20;99.90;;;;;;5085823;28;20343;-68
2022/05/21 10:03:45;;;;;;;;;;;17.10;99.90;;;;;;5093042;28;20009;-68
2022/05/21 10:06:19;;;;;;;;;;;17.00;99.90;;;;;;5089630;28;20351;-68
2022/05/21 10:11:42;;;;;;;;;;;17.00;99.90;;;;;;5088084;28;20005;-68
2022/05/21 10:14:29;;;;;;;;;;;17.20;99.90;;;;;;5082944;28;20271;-68
2022/05/21 10:16:58;;;;;;;;;;;17.20;99.90;;;;;;5077624;28;19912;-68
2022/05/21 10:19:24;;;;;;;;;;;17.50;99.90;;;;;;5070235;28;20257;-69
2022/05/21 10:21:56;;;;;;;;;;;17.60;99.90;;;;;;5092438;28;19912;-68
2022/05/21 10:24:51;;;;;;;;;;;17.50;99.90;;;;;;5075128;28;19954;-67
2022/05/21 10:27:26;;;;;;;;;;;17.20;99.90;;;;;;5065167;28;20281;-67
2022/05/21 10:30:10;;;;;;;;;;;16.80;99.90;;;;;;5082905;28;19919;-68
2022/05/21 10:32:51;;;;;;;;;;;16.60;99.90;;;;;;5091824;28;20025;-66
2022/05/21 10:35:26;;;;;;;;;;;16.80;99.90;;;;;;5071711;28;20066;-67
2022/05/21 10:38:05;;;;;;;;;;;16.80;99.90;;;;;;5077107;28;20011;-67
2022/05/21 10:40:41;;;;;;;;;;;17.00;99.90;;;;;;5075755;28;19964;-67
2022/05/21 10:43:16;;;;;;;;;;;17.50;99.90;;;;;;5080615;28;19916;-65
2022/05/21 10:45:45;;;;;;;;;;;17.90;99.90;;;;;;5079882;28;19912;-68
2022/05/21 10:48:11;;;;;;;;;;;17.70;99.90;;;;;;5081024;28;19912;-66
2022/05/21 10:50:39;;;;;;;;;;;17.20;99.90;;;;;;5080270;28;19934;-66
2022/05/21 10:53:14;;;;;;;;;;;16.90;99.90;;;;;;5075584;28;19920;-67
2022/05/21 10:55:58;;;;;;;;;;;16.80;99.90;;;;;;5061768;28;19913;-67
2022/05/21 10:58:23;;;;;;;;;;;16.80;99.90;;;;;;5077632;28;19916;-66
2022/05/21 11:01:08;;;;;;;;;;;16.90;99.90;;;;;;5071490;28;20338;-66
2022/05/21 11:04:12;;;;;;;;;;;17.00;99.90;;;;;;5085593;28;20393;-68
2022/05/21 11:06:56;;;;;;;;;;;17.20;99.90;;;;;;4966897;28;19914;-68
2022/05/21 11:09:39;;;;;;;;;;;17.30;99.90;;;;;;4966488;28;19926;-68
2022/05/21 11:12:11;;;;;;;;;;;17.40;99.90;;;;;;5030343;28;19989;-67
2022/05/21 11:14:49;;;;;;;;;;;17.60;99.80;;;;;;5063146;28;20494;-66
2022/05/21 11:17:20;;;;;;;;;;;17.70;99.90;;;;;;5056298;28;20415;-67
2022/05/21 11:20:06;;;;;;;;;;;17.80;99.60;;;;;;5060845;28;19912;-66
2022/05/21 11:22:38;;;;;;;;;;;18.10;99.10;;;;;;5027933;28;19917;-68
2022/05/21 11:25:22;;;;;;;;;;;18.50;97.00;;;;;;5074412;28;19922;-68
2022/05/21 11:28:10;;;;;;;;;;;18.40;96.10;;;;;;5066058;28;19995;-66
2022/05/21 11:30:35;;;;;;;;;;;18.70;96.20;;;;;;5065289;28;20015;-67
2022/05/21 11:38:34;;;;;;;;;;;18.10;95.90;;;;;;5065762;28;19923;-69
2022/05/21 11:46:48;;;;;;;;;;;18.10;94.80;;;;;;5067072;28;20578;-67
2022/05/21 11:49:32;;;;;;;;;;;17.90;95.00;;;;;;5067260;28;19916;-68
2022/05/21 11:51:58;;;;;;;;;;;17.90;95.40;;;;;;5054109;28;19917;-67
2022/05/21 11:54:42;;;;;;;;;;;17.70;95.60;;;;;;5064323;28;19921;-67
2022/05/21 11:57:08;;;;;;;;;;;17.70;95.60;;;;;;5061719;28;19912;-68
2022/05/21 11:59:53;;;;;;;;;;;17.90;95.50;;;;;;5068536;28;19913;-66
2022/05/21 12:02:29;;;;;;;;;;;18.00;94.70;;;;;;5064892;28;19921;-66
2022/05/21 12:04:57;;;;;;;;;;;18.10;93.00;;;;;;5061177;28;20318;-66
2022/05/21 12:07:46;;;;;;;;;;;18.20;93.80;;;;;;5066223;28;19912;-67
2022/05/21 12:10:24;;;;;;;;;;;18.40;94.40;;;;;;5068685;28;19913;-66
2022/05/21 12:13:11;;;;;;;;;;;18.30;94.20;;;;;;5063691;28;20354;-66
2022/05/21 12:15:41;;;;;;;;;;;18.50;94.10;;;;;;5069092;28;20013;-67
2022/05/21 12:18:26;;;;;;;;;;;18.50;93.00;;;;;;5077688;28;19912;-67
2022/05/21 12:20:52;;;;;;;;;;;18.40;93.30;;;;;;5078704;28;19913;-65
2022/05/21 12:23:31;;;;;;;;;;;18.60;93.00;;;;;;5076291;28;19965;-68
2022/05/21 12:25:58;;;;;;;;;;;18.60;91.10;;;;;;5077243;28;20361;-65
2022/05/21 12:28:26;;;;;;;;;;;18.60;91.10;;;;;;5076119;28;19919;-68
2022/05/21 12:30:59;;;;;;;;;;;18.80;90.10;;;;;;5077439;28;19967;-66
2022/05/21 12:33:32;;;;;;;;;;;18.70;90.60;;;;;;5085186;28;19920;-67
2022/05/21 12:36:12;;;;;;;;;;;18.80;90.80;;;;;;5093941;28;19972;-66
2022/05/21 12:38:39;;;;;;;;;;;18.60;90.60;;;;;;5082830;28;19912;-66
2022/05/21 12:41:36;;;;;;;;;;;18.60;90.50;;;;;;5076795;28;19922;-67
2022/05/21 12:44:02;;;;;;;;;;;19.20;90.10;;;;;;5067440;28;19912;-68
2022/05/21 12:46:35;;;;;;;;;;;19.60;88.40;;;;;;5096122;28;20341;-66
2022/05/21 12:49:04;;;;;;;;;;;19.50;89.10;;;;;;5090855;28;19917;-66
2022/05/21 12:51:30;;;;;;;;;;;19.60;90.00;;;;;;5088630;28;20330;-66
2022/05/21 12:53:56;;;;;;;;;;;19.60;89.70;;;;;;5066395;28;19950;-67
2022/05/21 12:56:35;;;;;;;;;;;19.60;89.70;;;;;;5071225;28;20251;-66
2022/05/21 12:59:07;;;;;;;;;;;19.40;90.30;;;;;;5066247;28;19912;-66
2022/05/21 13:01:34;;;;;;;;;;;19.30;90.00;;;;;;5086376;28;19967;-66
2022/05/21 13:04:00;;;;;;;;;;;19.10;89.80;;;;;;5097240;28;19912;-67
2022/05/21 13:06:27;;;;;;;;;;;19.20;90.00;;;;;;5091322;28;19966;-66
2022/05/21 13:08:53;;;;;;;;;;;19.30;90.60;;;;;;5090367;28;20011;-67
2022/05/21 13:11:24;;;;;;;;;;;19.40;90.10;;;;;;5082480;28;20043;-66
2022/05/21 13:13:57;;;;;;;;;;;19.50;90.20;;;;;;5068714;28;19958;-67
2022/05/21 13:16:23;;;;;;;;;;;19.40;89.10;;;;;;5089595;28;19991;-68
2022/05/21 13:18:49;;;;;;;;;;;19.20;89.10;;;;;;5085734;28;19912;-68
2022/05/21 13:21:30;;;;;;;;;;;19.30;89.10;;;;;;5083160;28;20251;-67
2022/05/21 13:24:04;;;;;;;;;;;19.30;90.10;;;;;;5088225;28;19966;-68
2022/05/21 13:26:31;;;;;;;;;;;19.20;90.30;;;;;;5084926;28;20401;-67
2022/05/21 13:29:16;;;;;;;;;;;19.20;90.40;;;;;;5054433;28;20369;-68
2022/05/21 13:31:42;;;;;;;;;;;19.00;88.40;;;;;;5091516;28;19912;-68
2022/05/21 13:34:12;;;;;;;;;;;19.00;89.90;;;;;;5086258;28;19927;-66
2022/05/21 13:36:38;;;;;;;;;;;18.90;88.60;;;;;;5054000;28;20014;-67
2022/05/21 13:39:17;;;;;;;;;;;18.80;89.80;;;;;;5089190;28;19971;-67
2022/05/21 13:41:43;;;;;;;;;;;18.70;89.70;;;;;;5089400;28;20335;-68
2022/05/21 13:44:15;;;;;;;;;;;18.80;89.40;;;;;;5088496;28;20222;-67
2022/05/21 13:46:41;;;;;;;;;;;18.70;89.00;;;;;;5091772;28;19913;-67
2022/05/21 13:49:20;;;;;;;;;;;18.70;90.90;;;;;;5090212;28;19923;-69
2022/05/21 13:51:48;;;;;;;;;;;18.80;90.10;;;;;;5083705;28;19957;-67
2022/05/21 13:54:14;;;;;;;;;;;19.00;90.00;;;;;;5083426;28;19955;-67
2022/05/21 13:56:40;;;;;;;;;;;19.00;89.20;;;;;;5090708;28;20050;-68
2022/05/21 13:59:09;;;;;;;;;;;19.00;87.70;;;;;;5077391;28;19930;-66
2022/05/21 14:01:36;;;;;;;;;;;19.00;86.40;;;;;;5068762;28;19974;-68
2022/05/21 14:04:06;;;;;;;;;;;19.00;85.90;;;;;;5089088;28;19949;-67
2022/05/21 14:06:32;;;;;;;;;;;19.10;86.40;;;;;;5082428;28;20298;-67
2022/05/21 14:08:59;;;;;;;;;;;19.20;86.00;;;;;;5078893;28;20016;-65
2022/05/21 14:11:26;;;;;;;;;;;19.20;87.40;;;;;;5088068;28;19924;-66
2022/05/21 14:13:55;;;;;;;;;;;19.40;88.00;;;;;;5089333;28;20008;-66
2022/05/21 14:16:34;;;;;;;;;;;19.70;88.30;;;;;;5077547;28;19955;-67
2022/05/21 14:19:04;;;;;;;;;;;19.80;85.90;;;;;;5082721;28;20283;-67
2022/05/21 14:21:32;;;;;;;;;;;19.30;86.70;;;;;;5066575;28;19951;-67
2022/05/21 14:24:16;;;;;;;;;;;19.20;86.90;;;;;;5089461;28;19912;-68
2022/05/21 14:26:54;;;;;;;;;;;19.30;86.40;;;;;;5085847;28;19913;-68
2022/05/21 14:29:34;;;;;;;;;;;19.50;87.10;;;;;;5087703;28;20019;-67
2022/05/21 14:32:15;;;;;;;;;;;19.70;85.70;;;;;;5088120;28;19912;-67
2022/05/21 14:34:41;;;;;;;;;;;19.70;85.70;;;;;;5064322;28;20331;-68
2022/05/21 14:37:19;;;;;;;;;;;20.10;85.30;;;;;;5082977;28;19991;-67
2022/05/21 14:39:45;;;;;;;;;;;20.30;84.90;;;;;;5079707;28;19931;-67
2022/05/21 14:42:10;;;;;;;;;;;20.70;84.40;;;;;;5080905;28;20239;-67
2022/05/21 14:44:38;;;;;;;;;;;21.40;83.00;;;;;;5070021;28;19928;-66
2022/05/21 14:49:47;;;;;;;;;;;23.40;77.60;;;;;;5080761;28;20009;-67
2022/05/21 14:54:58;;;;;;;;;;;23.70;75.50;;;;;;5087003;28;19977;-69
2022/05/21 14:57:24;;;;;;;;;;;24.30;74.30;;;;;;5081679;28;20497;-68
2022/05/21 14:59:49;;;;;;;;;;;24.00;74.30;;;;;;5077459;28;20011;-67
2022/05/21 15:02:17;;;;;;;;;;;23.50;74.70;;;;;;5078760;28;20381;-66
2022/05/21 15:04:43;;;;;;;;;;;23.40;76.70;;;;;;5079970;28;19916;-66
2022/05/21 15:07:14;;;;;;;;;;;23.90;75.80;;;;;;5062547;28;19923;-66
2022/05/21 15:09:40;;;;;;;;;;;23.70;75.10;;;;;;5087145;28;19919;-67
2022/05/21 15:12:06;;;;;;;;;;;23.50;75.90;;;;;;5090139;28;19924;-67
2022/05/21 15:14:37;;;;;;;;;;;23.50;76.00;;;;;;5082454;28;19916;-67
2022/05/21 15:17:07;;;;;;;;;;;23.90;75.20;;;;;;5067910;28;20328;-66